sensor_id;sensor_type;location;lat;lon;timestamp;temperature;humidity
42365;DHT22;28498;54.400;18.566;2024-02-15T00:00:52;4.70;99.90
42365;DHT22;28498;54.400;18.566;2024-02-15T00:03:20;4.70;99.90
42365;DHT22;28498;54.400;18.566;2024-02-15T00:05:48;4.80;99.90
42365;DHT22;28498;54.400;18.566;2024-02-15T00:08:15;4.80;99.90
42365;DHT22;28498;54.400;18.566;2024-02-15T00:10:42;4.80;99.90
42365;DHT22;28498;54.400;18.566;2024-02-15T00:13:13;4.80;99.90
42365;DHT22;28498;54.400;18.566;2024-02-15T00:15:40;4.70;99.90
42365;DHT22;28498;54.400;18.566;2024-02-15T00:18:07;4.80;99.90
42365;DHT22;28498;54.400;18.566;2024-02-15T00:20:36;4.80;99.90
42365;DHT22;28498;54.400;18.566;2024-02-15T00:23:06;4.70;99.90
42365;DHT22;28498;54.400;18.566;2024-02-15T00:25:36;4.70;99.90
42365;DHT22;28498;54.400;18.566;2024-02-15T00:28:03;4.70;99.90
42365;DHT22;28498;54.400;18.566;2024-02-15T00:30:30;4.70;99.90
42365;DHT22;28498;54.400;18.566;2024-02-15T00:32:58;4.70;99.90
42365;DHT22;28498;54.400;18.566;2024-02-15T00:35:26;4.70;99.90
42365;DHT22;28498;54.400;18.566;2024-02-15T00:37:54;4.70;99.90
42365;DHT22;28498;54.400;18.566;2024-02-15T00:40:21;4.80;99.90
42365;DHT22;28498;54.400;18.566;2024-02-15T00:42:49;4.70;99.90
42365;DHT22;28498;54.400;18.566;2024-02-15T00:45:16;4.80;99.90
42365;DHT22;28498;54.400;18.566;2024-02-15T00:47:43;4.80;99.90
42365;DHT22;28498;54.400;18.566;2024-02-15T00:50:10;4.80;99.90
42365;DHT22;28498;54.400;18.566;2024-02-15T00:52:38;4.80;99.90
42365;DHT22;28498;54.400;18.566;2024-02-15T00:55:05;4.80;99.90
42365;DHT22;28498;54.400;18.566;2024-02-15T00:57:32;4.80;99.90
42365;DHT22;28498;54.400;18.566;2024-02-15T00:59:59;4.80;99.90
42365;DHT22;28498;54.400;18.566;2024-02-15T01:02:26;4.80;99.90
42365;DHT22;28498;54.400;18.566;2024-02-15T01:04:55;4.80;99.90
42365;DHT22;28498;54.400;18.566;2024-02-15T01:07:24;4.90;99.90
42365;DHT22;28498;54.400;18.566;2024-02-15T01:09:54;4.90;99.90
42365;DHT22;28498;54.400;18.566;2024-02-15T01:12:21;4.90;99.90
42365;DHT22;28498;54.400;18.566;2024-02-15T01:14:48;4.90;99.90
42365;DHT22;28498;54.400;18.566;2024-02-15T01:17:16;4.90;99.90
42365;DHT22;28498;54.400;18.566;2024-02-15T01:19:43;4.90;99.90
42365;DHT22;28498;54.400;18.566;2024-02-15T01:22:11;4.90;99.90
42365;DHT22;28498;54.400;18.566;2024-02-15T01:24:38;5.00;99.90
42365;DHT22;28498;54.400;18.566;2024-02-15T01:27:05;4.90;99.90
42365;DHT22;28498;54.400;18.566;2024-02-15T01:29:35;4.90;99.90
42365;DHT22;28498;54.400;18.566;2024-02-15T01:32:02;4.90;99.90
42365;DHT22;28498;54.400;18.566;2024-02-15T01:34:29;4.90;99.90
42365;DHT22;28498;54.400;18.566;2024-02-15T01:36:56;4.90;99.90
42365;DHT22;28498;54.400;18.566;2024-02-15T01:39:23;4.90;99.90
42365;DHT22;28498;54.400;18.566;2024-02-15T01:41:50;4.90;99.90
42365;DHT22;28498;54.400;18.566;2024-02-15T01:44:18;4.90;99.90
42365;DHT22;28498;54.400;18.566;2024-02-15T01:46:48;4.90;99.90
42365;DHT22;28498;54.400;18.566;2024-02-15T01:49:16;4.90;99.90
42365;DHT22;28498;54.400;18.566;2024-02-15T01:51:44;5.00;99.90
42365;DHT22;28498;54.400;18.566;2024-02-15T01:54:13;4.90;99.90
42365;DHT22;28498;54.400;18.566;2024-02-15T01:56:44;4.90;99.90
42365;DHT22;28498;54.400;18.566;2024-02-15T01:59:15;5.00;99.90
42365;DHT22;28498;54.400;18.566;2024-02-15T02:01:42;5.00;99.90
42365;DHT22;28498;54.400;18.566;2024-02-15T02:04:09;5.00;99.90
42365;DHT22;28498;54.400;18.566;2024-02-15T02:06:39;5.00;99.90
42365;DHT22;28498;54.400;18.566;2024-02-15T02:09:11;5.00;99.90
42365;DHT22;28498;54.400;18.566;2024-02-15T02:11:46;4.90;99.90
42365;DHT22;28498;54.400;18.566;2024-02-15T02:14:16;5.00;99.90
42365;DHT22;28498;54.400;18.566;2024-02-15T02:16:43;5.00;99.90
42365;DHT22;28498;54.400;18.566;2024-02-15T02:19:13;4.90;99.90
42365;DHT22;28498;54.400;18.566;2024-02-15T02:21:40;5.00;99.90
42365;DHT22;28498;54.400;18.566;2024-02-15T02:24:13;4.90;99.90
42365;DHT22;28498;54.400;18.566;2024-02-15T02:26:41;5.00;99.90
42365;DHT22;28498;54.400;18.566;2024-02-15T02:29:10;5.00;99.90
42365;DHT22;28498;54.400;18.566;2024-02-15T02:31:37;5.00;99.90
42365;DHT22;28498;54.400;18.566;2024-02-15T02:34:04;5.00;99.90
42365;DHT22;28498;54.400;18.566;2024-02-15T02:36:33;5.00;99.90
42365;DHT22;28498;54.400;18.566;2024-02-15T02:39:01;5.00;99.90
42365;DHT22;28498;54.400;18.566;2024-02-15T02:41:28;5.00;99.90
42365;DHT22;28498;54.400;18.566;2024-02-15T02:43:56;5.00;99.90
42365;DHT22;28498;54.400;18.566;2024-02-15T02:46:24;5.00;99.90
42365;DHT22;28498;54.400;18.566;2024-02-15T02:48:51;5.00;99.90
42365;DHT22;28498;54.400;18.566;2024-02-15T02:51:18;5.00;99.90
42365;DHT22;28498;54.400;18.566;2024-02-15T02:53:46;5.00;99.90
42365;DHT22;28498;54.400;18.566;2024-02-15T02:56:13;5.00;99.90
42365;DHT22;28498;54.400;18.566;2024-02-15T02:58:40;5.10;99.90
42365;DHT22;28498;54.400;18.566;2024-02-15T03:01:10;5.00;99.90
42365;DHT22;28498;54.400;18.566;2024-02-15T03:03:38;5.00;99.90
42365;DHT22;28498;54.400;18.566;2024-02-15T03:06:06;5.10;99.90
42365;DHT22;28498;54.400;18.566;2024-02-15T03:08:34;5.10;99.90
42365;DHT22;28498;54.400;18.566;2024-02-15T03:11:01;5.10;99.90
42365;DHT22;28498;54.400;18.566;2024-02-15T03:13:29;5.10;99.90
42365;DHT22;28498;54.400;18.566;2024-02-15T03:15:56;5.10;99.90
42365;DHT22;28498;54.400;18.566;2024-02-15T03:18:23;5.10;99.90
42365;DHT22;28498;54.400;18.566;2024-02-15T03:20:51;5.10;99.90
42365;DHT22;28498;54.400;18.566;2024-02-15T03:23:18;5.10;99.90
42365;DHT22;28498;54.400;18.566;2024-02-15T03:25:45;5.10;99.90
42365;DHT22;28498;54.400;18.566;2024-02-15T03:28:12;5.10;99.90
42365;DHT22;28498;54.400;18.566;2024-02-15T03:30:42;5.10;99.90
42365;DHT22;28498;54.400;18.566;2024-02-15T03:33:12;5.10;99.90
42365;DHT22;28498;54.400;18.566;2024-02-15T03:35:40;5.10;99.90
42365;DHT22;28498;54.400;18.566;2024-02-15T03:38:08;5.10;99.90
42365;DHT22;28498;54.400;18.566;2024-02-15T03:40:35;5.10;99.90
42365;DHT22;28498;54.400;18.566;2024-02-15T03:43:03;5.10;99.90
42365;DHT22;28498;54.400;18.566;2024-02-15T03:45:33;5.20;99.90
42365;DHT22;28498;54.400;18.566;2024-02-15T03:48:01;5.20;99.90
42365;DHT22;28498;54.400;18.566;2024-02-15T03:50:28;5.10;99.90
42365;DHT22;28498;54.400;18.566;2024-02-15T03:52:55;5.20;99.90
42365;DHT22;28498;54.400;18.566;2024-02-15T03:55:22;5.20;99.90
42365;DHT22;28498;54.400;18.566;2024-02-15T03:57:52;5.20;99.90
42365;DHT22;28498;54.400;18.566;2024-02-15T04:00:22;5.20;99.90
42365;DHT22;28498;54.400;18.566;2024-02-15T04:02:52;5.20;99.90
42365;DHT22;28498;54.400;18.566;2024-02-15T04:05:19;5.20;99.90
42365;DHT22;28498;54.400;18.566;2024-02-15T04:07:49;5.20;99.90
42365;DHT22;28498;54.400;18.566;2024-02-15T04:10:16;5.20;99.90
42365;DHT22;28498;54.400;18.566;2024-02-15T04:12:45;5.30;99.90
42365;DHT22;28498;54.400;18.566;2024-02-15T04:15:13;5.20;99.90
42365;DHT22;28498;54.400;18.566;2024-02-15T04:17:44;5.30;99.90
42365;DHT22;28498;54.400;18.566;2024-02-15T04:20:12;5.30;99.90
42365;DHT22;28498;54.400;18.566;2024-02-15T04:22:41;5.20;99.90
42365;DHT22;28498;54.400;18.566;2024-02-15T04:25:10;5.30;99.90
42365;DHT22;28498;54.400;18.566;2024-02-15T04:27:48;5.30;99.90
42365;DHT22;28498;54.400;18.566;2024-02-15T04:30:16;5.30;99.90
42365;DHT22;28498;54.400;18.566;2024-02-15T04:32:44;5.30;99.90
42365;DHT22;28498;54.400;18.566;2024-02-15T04:35:11;5.30;99.90
42365;DHT22;28498;54.400;18.566;2024-02-15T04:37:41;5.30;99.90
42365;DHT22;28498;54.400;18.566;2024-02-15T04:40:08;5.30;99.90
42365;DHT22;28498;54.400;18.566;2024-02-15T04:42:37;5.30;99.90
42365;DHT22;28498;54.400;18.566;2024-02-15T04:45:07;5.30;99.90
42365;DHT22;28498;54.400;18.566;2024-02-15T04:47:35;5.30;99.90
42365;DHT22;28498;54.400;18.566;2024-02-15T04:50:03;5.30;99.90
42365;DHT22;28498;54.400;18.566;2024-02-15T04:52:33;5.30;99.90
42365;DHT22;28498;54.400;18.566;2024-02-15T04:55:01;5.40;99.90
42365;DHT22;28498;54.400;18.566;2024-02-15T04:57:31;5.40;99.90
42365;DHT22;28498;54.400;18.566;2024-02-15T05:00:00;5.40;99.90
42365;DHT22;28498;54.400;18.566;2024-02-15T05:02:27;5.40;99.90
42365;DHT22;28498;54.400;18.566;2024-02-15T05:04:54;5.40;99.90
42365;DHT22;28498;54.400;18.566;2024-02-15T05:07:23;5.40;99.90
42365;DHT22;28498;54.400;18.566;2024-02-15T05:09:51;5.40;99.90
42365;DHT22;28498;54.400;18.566;2024-02-15T05:12:23;5.40;99.90
42365;DHT22;28498;54.400;18.566;2024-02-15T05:14:54;5.40;99.90
42365;DHT22;28498;54.400;18.566;2024-02-15T05:17:21;5.40;99.90
42365;DHT22;28498;54.400;18.566;2024-02-15T05:19:52;5.40;99.90
42365;DHT22;28498;54.400;18.566;2024-02-15T05:22:19;5.40;99.90
42365;DHT22;28498;54.400;18.566;2024-02-15T05:24:46;5.40;99.90
42365;DHT22;28498;54.400;18.566;2024-02-15T05:27:12;5.40;99.90
42365;DHT22;28498;54.400;18.566;2024-02-15T05:29:40;5.40;99.90
42365;DHT22;28498;54.400;18.566;2024-02-15T05:32:10;5.40;99.90
42365;DHT22;28498;54.400;18.566;2024-02-15T05:34:38;5.40;99.90
42365;DHT22;28498;54.400;18.566;2024-02-15T05:37:07;5.40;99.90
42365;DHT22;28498;54.400;18.566;2024-02-15T05:39:34;5.50;99.90
42365;DHT22;28498;54.400;18.566;2024-02-15T05:42:01;5.50;99.90
42365;DHT22;28498;54.400;18.566;2024-02-15T05:44:29;5.50;99.90
42365;DHT22;28498;54.400;18.566;2024-02-15T05:46:56;5.50;99.90
42365;DHT22;28498;54.400;18.566;2024-02-15T05:49:23;5.50;99.90
42365;DHT22;28498;54.400;18.566;2024-02-15T05:51:51;5.50;99.90
42365;DHT22;28498;54.400;18.566;2024-02-15T05:54:20;5.50;99.90
42365;DHT22;28498;54.400;18.566;2024-02-15T05:56:50;5.60;99.90
42365;DHT22;28498;54.400;18.566;2024-02-15T05:59:19;5.60;99.90
42365;DHT22;28498;54.400;18.566;2024-02-15T06:01:47;5.60;99.90
42365;DHT22;28498;54.400;18.566;2024-02-15T06:04:15;5.60;99.90
42365;DHT22;28498;54.400;18.566;2024-02-15T06:06:43;5.60;99.90
42365;DHT22;28498;54.400;18.566;2024-02-15T06:09:17;5.60;99.90
42365;DHT22;28498;54.400;18.566;2024-02-15T06:11:44;5.60;99.90
42365;DHT22;28498;54.400;18.566;2024-02-15T06:14:12;5.60;99.90
42365;DHT22;28498;54.400;18.566;2024-02-15T06:16:43;5.60;99.90
42365;DHT22;28498;54.400;18.566;2024-02-15T06:19:11;5.60;99.90
42365;DHT22;28498;54.400;18.566;2024-02-15T06:21:38;5.70;99.90
42365;DHT22;28498;54.400;18.566;2024-02-15T06:24:05;5.70;99.90
42365;DHT22;28498;54.400;18.566;2024-02-15T06:26:32;5.70;99.90
42365;DHT22;28498;54.400;18.566;2024-02-15T06:29:00;5.70;99.90
42365;DHT22;28498;54.400;18.566;2024-02-15T06:31:46;5.70;99.90
42365;DHT22;28498;54.400;18.566;2024-02-15T06:34:31;5.80;99.90
42365;DHT22;28498;54.400;18.566;2024-02-15T06:37:38;5.80;99.90
42365;DHT22;28498;54.400;18.566;2024-02-15T06:40:24;5.80;99.90
42365;DHT22;28498;54.400;18.566;2024-02-15T06:42:51;5.90;99.90
42365;DHT22;28498;54.400;18.566;2024-02-15T06:45:18;5.90;99.90
42365;DHT22;28498;54.400;18.566;2024-02-15T06:47:46;5.90;99.90
42365;DHT22;28498;54.400;18.566;2024-02-15T06:50:15;5.90;99.90
42365;DHT22;28498;54.400;18.566;2024-02-15T06:52:44;6.00;99.90
42365;DHT22;28498;54.400;18.566;2024-02-15T06:58:53;6.10;99.90
42365;DHT22;28498;54.400;18.566;2024-02-15T07:01:24;6.10;99.90
42365;DHT22;28498;54.400;18.566;2024-02-15T07:03:52;6.20;99.90
42365;DHT22;28498;54.400;18.566;2024-02-15T07:06:22;6.30;99.90
42365;DHT22;28498;54.400;18.566;2024-02-15T07:08:49;6.30;99.90
42365;DHT22;28498;54.400;18.566;2024-02-15T07:11:17;6.40;99.90
42365;DHT22;28498;54.400;18.566;2024-02-15T07:13:44;6.50;99.90
42365;DHT22;28498;54.400;18.566;2024-02-15T07:16:11;6.50;99.90
42365;DHT22;28498;54.400;18.566;2024-02-15T07:18:38;6.50;99.90
42365;DHT22;28498;54.400;18.566;2024-02-15T07:21:06;6.60;99.90
42365;DHT22;28498;54.400;18.566;2024-02-15T07:23:38;6.60;99.90
42365;DHT22;28498;54.400;18.566;2024-02-15T07:26:05;6.70;99.90
42365;DHT22;28498;54.400;18.566;2024-02-15T07:28:32;6.70;99.90
42365;DHT22;28498;54.400;18.566;2024-02-15T07:30:59;6.60;99.90
42365;DHT22;28498;54.400;18.566;2024-02-15T07:33:29;6.70;99.90
42365;DHT22;28498;54.400;18.566;2024-02-15T07:39:44;6.90;99.90
42365;DHT22;28498;54.400;18.566;2024-02-15T07:42:11;6.90;99.90
42365;DHT22;28498;54.400;18.566;2024-02-15T07:44:39;6.90;99.90
42365;DHT22;28498;54.400;18.566;2024-02-15T07:47:06;7.00;99.90
42365;DHT22;28498;54.400;18.566;2024-02-15T07:49:34;7.00;99.90
42365;DHT22;28498;54.400;18.566;2024-02-15T07:52:02;7.10;99.90
42365;DHT22;28498;54.400;18.566;2024-02-15T07:54:30;7.20;99.90
42365;DHT22;28498;54.400;18.566;2024-02-15T07:57:00;7.30;99.90
42365;DHT22;28498;54.400;18.566;2024-02-15T07:59:27;7.40;99.90
42365;DHT22;28498;54.400;18.566;2024-02-15T08:01:55;7.50;99.90
42365;DHT22;28498;54.400;18.566;2024-02-15T08:04:22;7.60;99.90
42365;DHT22;28498;54.400;18.566;2024-02-15T08:06:51;7.60;99.90
42365;DHT22;28498;54.400;18.566;2024-02-15T08:09:20;7.50;99.90
42365;DHT22;28498;54.400;18.566;2024-02-15T08:11:51;7.60;99.90
42365;DHT22;28498;54.400;18.566;2024-02-15T08:14:18;7.60;99.90
42365;DHT22;28498;54.400;18.566;2024-02-15T08:16:47;7.70;99.90
42365;DHT22;28498;54.400;18.566;2024-02-15T08:19:14;7.80;99.90
42365;DHT22;28498;54.400;18.566;2024-02-15T08:21:42;7.90;99.90
42365;DHT22;28498;54.400;18.566;2024-02-15T08:24:13;8.00;99.90
42365;DHT22;28498;54.400;18.566;2024-02-15T08:26:40;8.10;99.90
42365;DHT22;28498;54.400;18.566;2024-02-15T08:29:11;8.20;99.90
42365;DHT22;28498;54.400;18.566;2024-02-15T08:31:40;8.30;99.90
42365;DHT22;28498;54.400;18.566;2024-02-15T08:34:08;8.40;99.90
42365;DHT22;28498;54.400;18.566;2024-02-15T08:36:39;8.50;99.90
42365;DHT22;28498;54.400;18.566;2024-02-15T08:39:07;8.40;99.90
42365;DHT22;28498;54.400;18.566;2024-02-15T08:41:35;8.40;99.90
42365;DHT22;28498;54.400;18.566;2024-02-15T08:44:02;8.40;99.90
42365;DHT22;28498;54.400;18.566;2024-02-15T08:46:32;8.40;99.90
42365;DHT22;28498;54.400;18.566;2024-02-15T08:48:59;8.50;99.90
42365;DHT22;28498;54.400;18.566;2024-02-15T08:51:28;8.50;99.90
42365;DHT22;28498;54.400;18.566;2024-02-15T08:53:55;8.50;99.90
42365;DHT22;28498;54.400;18.566;2024-02-15T08:56:24;8.60;99.90
42365;DHT22;28498;54.400;18.566;2024-02-15T08:58:51;8.50;99.90
42365;DHT22;28498;54.400;18.566;2024-02-15T09:01:18;8.50;99.90
42365;DHT22;28498;54.400;18.566;2024-02-15T09:03:45;8.70;99.90
42365;DHT22;28498;54.400;18.566;2024-02-15T09:06:13;8.70;99.90
42365;DHT22;28498;54.400;18.566;2024-02-15T09:12:21;8.70;99.90
42365;DHT22;28498;54.400;18.566;2024-02-15T09:14:49;8.70;99.90
42365;DHT22;28498;54.400;18.566;2024-02-15T09:17:16;8.70;99.90
42365;DHT22;28498;54.400;18.566;2024-02-15T09:19:43;8.80;99.90
42365;DHT22;28498;54.400;18.566;2024-02-15T09:22:10;8.70;99.90
42365;DHT22;28498;54.400;18.566;2024-02-15T09:24:37;8.70;99.90
42365;DHT22;28498;54.400;18.566;2024-02-15T09:27:04;8.90;99.90
42365;DHT22;28498;54.400;18.566;2024-02-15T09:29:31;9.00;99.90
42365;DHT22;28498;54.400;18.566;2024-02-15T09:32:01;9.10;99.90
42365;DHT22;28498;54.400;18.566;2024-02-15T09:34:29;9.30;99.90
42365;DHT22;28498;54.400;18.566;2024-02-15T09:36:56;9.40;99.90
42365;DHT22;28498;54.400;18.566;2024-02-15T09:39:23;9.50;99.90
42365;DHT22;28498;54.400;18.566;2024-02-15T09:41:50;9.50;99.90
42365;DHT22;28498;54.400;18.566;2024-02-15T09:44:26;9.50;99.90
42365;DHT22;28498;54.400;18.566;2024-02-15T09:47:04;9.60;99.90
42365;DHT22;28498;54.400;18.566;2024-02-15T09:49:38;9.60;99.90
42365;DHT22;28498;54.400;18.566;2024-02-15T09:52:08;9.70;99.90
42365;DHT22;28498;54.400;18.566;2024-02-15T09:54:45;9.50;99.90
42365;DHT22;28498;54.400;18.566;2024-02-15T09:57:12;9.70;99.90
42365;DHT22;28498;54.400;18.566;2024-02-15T09:59:40;9.70;99.90
42365;DHT22;28498;54.400;18.566;2024-02-15T10:02:08;9.70;99.90
42365;DHT22;28498;54.400;18.566;2024-02-15T10:04:39;9.80;99.90
42365;DHT22;28498;54.400;18.566;2024-02-15T10:07:07;9.90;99.90
42365;DHT22;28498;54.400;18.566;2024-02-15T10:09:37;9.90;99.90
42365;DHT22;28498;54.400;18.566;2024-02-15T10:12:05;9.80;99.90
42365;DHT22;28498;54.400;18.566;2024-02-15T10:14:34;9.90;99.90
42365;DHT22;28498;54.400;18.566;2024-02-15T10:17:08;10.00;99.90
42365;DHT22;28498;54.400;18.566;2024-02-15T10:19:39;10.00;99.90
42365;DHT22;28498;54.400;18.566;2024-02-15T10:22:07;10.00;99.90
42365;DHT22;28498;54.400;18.566;2024-02-15T10:24:35;10.00;99.90
42365;DHT22;28498;54.400;18.566;2024-02-15T10:27:04;10.00;99.90
42365;DHT22;28498;54.400;18.566;2024-02-15T10:29:34;10.00;99.90
42365;DHT22;28498;54.400;18.566;2024-02-15T10:32:02;10.10;99.90
42365;DHT22;28498;54.400;18.566;2024-02-15T10:34:31;10.00;99.90
42365;DHT22;28498;54.400;18.566;2024-02-15T10:37:12;9.90;99.90
42365;DHT22;28498;54.400;18.566;2024-02-15T10:39:40;9.90;99.90
42365;DHT22;28498;54.400;18.566;2024-02-15T10:42:09;9.90;99.90
42365;DHT22;28498;54.400;18.566;2024-02-15T10:44:38;9.90;99.90
42365;DHT22;28498;54.400;18.566;2024-02-15T10:47:06;10.10;99.90
42365;DHT22;28498;54.400;18.566;2024-02-15T10:49:34;10.10;99.90
42365;DHT22;28498;54.400;18.566;2024-02-15T10:52:04;10.10;99.90
42365;DHT22;28498;54.400;18.566;2024-02-15T10:54:47;10.00;99.90
42365;DHT22;28498;54.400;18.566;2024-02-15T10:57:19;10.00;99.90
42365;DHT22;28498;54.400;18.566;2024-02-15T10:59:56;10.10;99.90
42365;DHT22;28498;54.400;18.566;2024-02-15T11:02:29;10.00;99.90
42365;DHT22;28498;54.400;18.566;2024-02-15T11:05:05;9.90;99.90
42365;DHT22;28498;54.400;18.566;2024-02-15T11:07:37;10.10;99.90
42365;DHT22;28498;54.400;18.566;2024-02-15T11:10:07;10.00;99.90
42365;DHT22;28498;54.400;18.566;2024-02-15T11:12:38;10.00;99.90
42365;DHT22;28498;54.400;18.566;2024-02-15T11:15:07;10.00;99.90
42365;DHT22;28498;54.400;18.566;2024-02-15T11:20:10;10.10;99.90
42365;DHT22;28498;54.400;18.566;2024-02-15T11:22:38;10.10;99.90
42365;DHT22;28498;54.400;18.566;2024-02-15T11:25:06;10.00;99.90
42365;DHT22;28498;54.400;18.566;2024-02-15T11:27:36;10.00;99.90
42365;DHT22;28498;54.400;18.566;2024-02-15T11:30:09;10.00;99.90
42365;DHT22;28498;54.400;18.566;2024-02-15T11:32:48;10.00;99.90
42365;DHT22;28498;54.400;18.566;2024-02-15T11:35:25;10.00;99.90
42365;DHT22;28498;54.400;18.566;2024-02-15T11:37:55;10.10;99.90
42365;DHT22;28498;54.400;18.566;2024-02-15T11:41:17;10.20;99.90
42365;DHT22;28498;54.400;18.566;2024-02-15T11:46:26;10.30;99.90
42365;DHT22;28498;54.400;18.566;2024-02-15T11:48:58;10.30;99.90
42365;DHT22;28498;54.400;18.566;2024-02-15T11:54:07;10.40;99.90
42365;DHT22;28498;54.400;18.566;2024-02-15T11:59:16;10.80;99.90
42365;DHT22;28498;54.400;18.566;2024-02-15T12:01:57;10.70;99.90
42365;DHT22;28498;54.400;18.566;2024-02-15T12:04:43;10.70;99.90
42365;DHT22;28498;54.400;18.566;2024-02-15T12:07:29;10.80;99.90
42365;DHT22;28498;54.400;18.566;2024-02-15T12:10:17;10.80;99.90
42365;DHT22;28498;54.400;18.566;2024-02-15T12:13:03;11.10;99.90
42365;DHT22;28498;54.400;18.566;2024-02-15T12:16:00;11.40;99.90
42365;DHT22;28498;54.400;18.566;2024-02-15T12:18:46;11.50;99.90
42365;DHT22;28498;54.400;18.566;2024-02-15T12:21:26;11.50;99.90
42365;DHT22;28498;54.400;18.566;2024-02-15T12:23:54;11.50;99.90
42365;DHT22;28498;54.400;18.566;2024-02-15T12:26:23;11.50;99.90
42365;DHT22;28498;54.400;18.566;2024-02-15T12:28:51;11.70;99.90
42365;DHT22;28498;54.400;18.566;2024-02-15T12:31:23;11.80;99.90
42365;DHT22;28498;54.400;18.566;2024-02-15T12:34:03;11.90;99.90
42365;DHT22;28498;54.400;18.566;2024-02-15T12:36:35;11.70;99.90
42365;DHT22;28498;54.400;18.566;2024-02-15T12:39:06;11.80;99.90
42365;DHT22;28498;54.400;18.566;2024-02-15T12:41:48;11.90;99.90
42365;DHT22;28498;54.400;18.566;2024-02-15T12:44:19;11.90;99.90
42365;DHT22;28498;54.400;18.566;2024-02-15T12:46:55;12.00;99.90
42365;DHT22;28498;54.400;18.566;2024-02-15T12:51:52;12.00;99.90
42365;DHT22;28498;54.400;18.566;2024-02-15T12:54:20;11.90;99.90
42365;DHT22;28498;54.400;18.566;2024-02-15T12:56:51;11.90;99.90
42365;DHT22;28498;54.400;18.566;2024-02-15T12:59:34;11.70;99.90
42365;DHT22;28498;54.400;18.566;2024-02-15T13:02:01;11.70;99.90
42365;DHT22;28498;54.400;18.566;2024-02-15T13:04:30;11.80;99.90
42365;DHT22;28498;54.400;18.566;2024-02-15T13:06:57;11.90;99.90
42365;DHT22;28498;54.400;18.566;2024-02-15T13:09:24;11.90;99.90
42365;DHT22;28498;54.400;18.566;2024-02-15T13:11:51;11.90;99.90
42365;DHT22;28498;54.400;18.566;2024-02-15T13:14:20;11.90;99.90
42365;DHT22;28498;54.400;18.566;2024-02-15T13:16:47;11.70;99.90
42365;DHT22;28498;54.400;18.566;2024-02-15T13:19:15;11.70;99.90
42365;DHT22;28498;54.400;18.566;2024-02-15T13:21:43;11.70;99.90
42365;DHT22;28498;54.400;18.566;2024-02-15T13:24:10;11.70;99.90
42365;DHT22;28498;54.400;18.566;2024-02-15T13:26:38;11.80;99.90
42365;DHT22;28498;54.400;18.566;2024-02-15T13:29:07;11.70;99.90
42365;DHT22;28498;54.400;18.566;2024-02-15T13:31:34;11.70;99.90
42365;DHT22;28498;54.400;18.566;2024-02-15T13:34:01;11.80;99.90
42365;DHT22;28498;54.400;18.566;2024-02-15T13:36:28;11.90;99.90
42365;DHT22;28498;54.400;18.566;2024-02-15T13:38:56;11.80;99.90
42365;DHT22;28498;54.400;18.566;2024-02-15T13:45:04;11.80;99.90
42365;DHT22;28498;54.400;18.566;2024-02-15T13:47:31;11.80;99.90
42365;DHT22;28498;54.400;18.566;2024-02-15T13:49:58;11.80;99.90
42365;DHT22;28498;54.400;18.566;2024-02-15T13:52:25;11.70;99.90
42365;DHT22;28498;54.400;18.566;2024-02-15T13:54:52;11.70;99.90
42365;DHT22;28498;54.400;18.566;2024-02-15T13:57:20;11.60;99.90
42365;DHT22;28498;54.400;18.566;2024-02-15T13:59:47;11.70;99.90
42365;DHT22;28498;54.400;18.566;2024-02-15T14:02:14;11.60;99.90
42365;DHT22;28498;54.400;18.566;2024-02-15T14:04:41;11.70;99.90
42365;DHT22;28498;54.400;18.566;2024-02-15T14:07:08;11.60;99.90
42365;DHT22;28498;54.400;18.566;2024-02-15T14:09:35;11.60;99.90
42365;DHT22;28498;54.400;18.566;2024-02-15T14:12:02;11.50;99.90
42365;DHT22;28498;54.400;18.566;2024-02-15T14:14:33;11.50;99.90
42365;DHT22;28498;54.400;18.566;2024-02-15T14:17:00;11.40;99.90
42365;DHT22;28498;54.400;18.566;2024-02-15T14:19:27;11.30;99.90
42365;DHT22;28498;54.400;18.566;2024-02-15T14:21:54;11.30;99.90
42365;DHT22;28498;54.400;18.566;2024-02-15T14:24:21;11.30;99.90
42365;DHT22;28498;54.400;18.566;2024-02-15T14:26:50;11.30;99.90
42365;DHT22;28498;54.400;18.566;2024-02-15T14:29:17;11.30;99.90
42365;DHT22;28498;54.400;18.566;2024-02-15T14:31:47;11.30;99.90
42365;DHT22;28498;54.400;18.566;2024-02-15T14:34:32;11.30;99.90
42365;DHT22;28498;54.400;18.566;2024-02-15T14:37:03;11.10;99.90
42365;DHT22;28498;54.400;18.566;2024-02-15T14:39:32;11.10;99.90
42365;DHT22;28498;54.400;18.566;2024-02-15T14:42:00;11.00;99.90
42365;DHT22;28498;54.400;18.566;2024-02-15T14:44:27;10.90;99.90
42365;DHT22;28498;54.400;18.566;2024-02-15T14:46:54;10.90;99.90
42365;DHT22;28498;54.400;18.566;2024-02-15T14:49:21;10.90;99.90
42365;DHT22;28498;54.400;18.566;2024-02-15T14:51:49;10.90;99.90
42365;DHT22;28498;54.400;18.566;2024-02-15T14:54:18;10.90;99.90
42365;DHT22;28498;54.400;18.566;2024-02-15T14:56:49;10.90;99.90
42365;DHT22;28498;54.400;18.566;2024-02-15T14:59:16;10.90;99.90
42365;DHT22;28498;54.400;18.566;2024-02-15T15:01:43;10.80;99.90
42365;DHT22;28498;54.400;18.566;2024-02-15T15:04:11;10.80;99.90
42365;DHT22;28498;54.400;18.566;2024-02-15T15:06:38;10.70;99.90
42365;DHT22;28498;54.400;18.566;2024-02-15T15:09:32;10.60;99.90
42365;DHT22;28498;54.400;18.566;2024-02-15T15:12:17;10.60;99.90
42365;DHT22;28498;54.400;18.566;2024-02-15T15:15:03;10.60;99.90
42365;DHT22;28498;54.400;18.566;2024-02-15T15:17:32;10.50;99.90
42365;DHT22;28498;54.400;18.566;2024-02-15T15:19:59;10.50;99.90
42365;DHT22;28498;54.400;18.566;2024-02-15T15:22:27;10.50;99.90
42365;DHT22;28498;54.400;18.566;2024-02-15T15:24:54;10.50;99.90
42365;DHT22;28498;54.400;18.566;2024-02-15T15:27:21;10.40;99.90
42365;DHT22;28498;54.400;18.566;2024-02-15T15:29:50;10.50;99.90
42365;DHT22;28498;54.400;18.566;2024-02-15T15:32:17;10.40;99.90
42365;DHT22;28498;54.400;18.566;2024-02-15T15:34:44;10.40;99.90
42365;DHT22;28498;54.400;18.566;2024-02-15T15:37:11;10.30;99.90
42365;DHT22;28498;54.400;18.566;2024-02-15T15:39:39;10.30;99.90
42365;DHT22;28498;54.400;18.566;2024-02-15T15:42:06;10.30;99.90
42365;DHT22;28498;54.400;18.566;2024-02-15T15:44:34;10.30;99.90
42365;DHT22;28498;54.400;18.566;2024-02-15T15:47:02;10.30;99.90
42365;DHT22;28498;54.400;18.566;2024-02-15T15:49:29;10.30;99.90
42365;DHT22;28498;54.400;18.566;2024-02-15T15:51:59;10.30;99.90
42365;DHT22;28498;54.400;18.566;2024-02-15T15:54:26;10.20;99.90
42365;DHT22;28498;54.400;18.566;2024-02-15T15:56:54;10.20;99.90
42365;DHT22;28498;54.400;18.566;2024-02-15T15:59:23;10.20;99.90
42365;DHT22;28498;54.400;18.566;2024-02-15T16:01:51;10.20;99.90
42365;DHT22;28498;54.400;18.566;2024-02-15T16:04:19;10.20;99.90
42365;DHT22;28498;54.400;18.566;2024-02-15T16:06:47;10.10;99.90